RPSB weather

Bantayan Airport
Cebu Province, Philippines

Public forecast

Using degrees Celsius for public forecast. Weather courtesy of forecast.io.

Closest aviation weather report (METAR) to Bantayan Airport

Closest report is Mactan Cebu International Airport, 52.6 nm (97.4 km) SSE. Retrieved 2020/07/13 08:00 UTC (24 minutes ago):

RPVM 130800Z 05008KT 9999 FEW018CB BKN250 32/23 Q1008 RMK A2977

Closest aviation forecast (TAF) to Bantayan Airport

Closest forecast is Mactan Cebu International Airport, 52.6 nm (97.4 km) SSE. Retrieved 2020/07/13 06:00 UTC (2 hours ago):

TAF RPVM 130500Z 1306/1412 18005KT 9999 FEW020 BKN300 TEMPO 1306/1312 23007KT FEW018CB FEW020 BKN300 TEMPO 1312/1318 -SHRA FEW018CB FEW020 BKN090